weather.gov     
National Weather Service

Terminal Aerodrome Forecast
NWS Homepage
This page is being discontinued on March 12, 2014.
The same data is available at this site. Please update your bookmarks.
Thank you, and we apologize for the inconvenience.
Please send an email to SR-SRH.Webmaster@noaa.gov with any concerns.


Current Version
Previous Version:    01  02  03  04  05  06  07  08  09  10  11  12  13  14  15  16  17  18  19  20  21  22  23  24  25  26  27  28  29  30  
   31  32  33  34  35  36  37  
[Printable]
770
FTUS43 KGRB 011100
TAFRHI
TAF
KRHI 011124Z 0112/0212 VRB02KT 1 1/2SM BR SCT005
      TEMPO 0112/0113 1/4SM FG VV002
     FM011400 29005KT P6SM SCT015
     FM011700 30005KT P6SM SCT050 SCT080 PROB30 0121/0124 4SM -TSRA
      BKN035CB
     FM020100 VRB03KT P6SM SCT050
      TEMPO 0204/0208 1 1/2SM BR
     FM020800 VRB02KT 1/4SM FG VV002=


U.S. Dept. of Commerce
NOAA National Weather Service
1325 East West Highway
Silver Spring, MD 20910
E-mail: w-nws.webmaster@noaa.gov
Page last modified: May 16, 2007
NATIONAL WEATHER SERVICE: for Safety, for Work, for Fun - FOR LIFE